sensor_id;sensor_type;location;lat;lon;timestamp;pressure;altitude;pressure_sealevel;temperature;humidity
61554;BME280;47425;51.976;5.326;2023-10-09T00:01:50;101884.34;;;20.14;58.02
61554;BME280;47425;51.976;5.326;2023-10-09T00:04:18;101877.75;;;20.02;58.02
61554;BME280;47425;51.976;5.326;2023-10-09T00:06:45;101870.47;;;19.86;58.29
61554;BME280;47425;51.976;5.326;2023-10-09T00:09:13;101877.84;;;19.78;58.40
61554;BME280;47425;51.976;5.326;2023-10-09T00:11:57;101876.84;;;19.82;59.11
61554;BME280;47425;51.976;5.326;2023-10-09T00:14:27;101874.78;;;19.89;59.01
61554;BME280;47425;51.976;5.326;2023-10-09T00:16:55;101888.13;;;19.87;58.22
61554;BME280;47425;51.976;5.326;2023-10-09T00:19:30;101872.69;;;19.75;58.28
61554;BME280;47425;51.976;5.326;2023-10-09T00:21:58;101877.47;;;19.67;58.55
61554;BME280;47425;51.976;5.326;2023-10-09T00:24:33;101866.97;;;19.64;59.89
61554;BME280;47425;51.976;5.326;2023-10-09T00:27:00;101856.72;;;19.75;59.16
61554;BME280;47425;51.976;5.326;2023-10-09T00:29:39;101866.69;;;19.70;59.00
61554;BME280;47425;51.976;5.326;2023-10-09T00:32:10;101871.59;;;19.58;59.29
61554;BME280;47425;51.976;5.326;2023-10-09T00:34:48;101875.38;;;19.53;59.27
61554;BME280;47425;51.976;5.326;2023-10-09T00:37:15;101876.31;;;19.52;59.61
61554;BME280;47425;51.976;5.326;2023-10-09T00:39:43;101876.25;;;19.53;59.73
61554;BME280;47425;51.976;5.326;2023-10-09T00:42:12;101878.66;;;19.59;59.22
61554;BME280;47425;51.976;5.326;2023-10-09T00:44:41;101875.25;;;19.56;59.46
61554;BME280;47425;51.976;5.326;2023-10-09T00:47:09;101876.31;;;19.52;59.95
61554;BME280;47425;51.976;5.326;2023-10-09T00:49:48;101881.16;;;19.42;59.99
61554;BME280;47425;51.976;5.326;2023-10-09T00:52:16;101883.13;;;19.37;59.87
61554;BME280;47425;51.976;5.326;2023-10-09T00:54:51;101878.56;;;19.18;60.28
61554;BME280;47425;51.976;5.326;2023-10-09T00:57:18;101877.94;;;19.11;60.33
61554;BME280;47425;51.976;5.326;2023-10-09T00:59:54;101876.19;;;19.10;60.46
61554;BME280;47425;51.976;5.326;2023-10-09T01:02:26;101871.56;;;19.16;61.13
61554;BME280;47425;51.976;5.326;2023-10-09T01:05:03;101875.09;;;19.16;60.91
61554;BME280;47425;51.976;5.326;2023-10-09T01:07:47;101868.63;;;19.23;60.47
61554;BME280;47425;51.976;5.326;2023-10-09T01:10:24;101866.94;;;19.21;60.53
61554;BME280;47425;51.976;5.326;2023-10-09T01:13:00;101868.13;;;19.14;61.30
61554;BME280;47425;51.976;5.326;2023-10-09T01:15:29;101863.09;;;19.28;60.93
61554;BME280;47425;51.976;5.326;2023-10-09T01:18:10;101857.06;;;19.24;60.41
61554;BME280;47425;51.976;5.326;2023-10-09T01:20:37;101853.22;;;19.09;60.67
61554;BME280;47425;51.976;5.326;2023-10-09T01:23:11;101853.56;;;19.02;61.16
61554;BME280;47425;51.976;5.326;2023-10-09T01:25:38;101856.44;;;18.95;61.55
61554;BME280;47425;51.976;5.326;2023-10-09T01:28:15;101853.97;;;18.91;61.76
61554;BME280;47425;51.976;5.326;2023-10-09T01:30:43;101847.78;;;18.90;61.60
61554;BME280;47425;51.976;5.326;2023-10-09T01:33:11;101844.38;;;18.87;61.73
61554;BME280;47425;51.976;5.326;2023-10-09T01:35:42;101843.03;;;18.99;62.15
61554;BME280;47425;51.976;5.326;2023-10-09T01:38:15;101836.75;;;19.01;62.18
61554;BME280;47425;51.976;5.326;2023-10-09T01:40:42;101836.63;;;19.04;61.76
61554;BME280;47425;51.976;5.326;2023-10-09T01:43:11;101842.88;;;19.03;61.59
61554;BME280;47425;51.976;5.326;2023-10-09T01:45:38;101839.31;;;19.03;61.75
61554;BME280;47425;51.976;5.326;2023-10-09T01:48:09;101833.38;;;18.98;61.57
61554;BME280;47425;51.976;5.326;2023-10-09T01:50:37;101828.22;;;18.93;62.57
61554;BME280;47425;51.976;5.326;2023-10-09T01:53:07;101826.31;;;18.97;62.11
61554;BME280;47425;51.976;5.326;2023-10-09T01:55:36;101820.44;;;19.10;61.67
61554;BME280;47425;51.976;5.326;2023-10-09T01:58:06;101823.91;;;19.13;61.98
61554;BME280;47425;51.976;5.326;2023-10-09T02:00:43;101828.16;;;19.17;61.87
61554;BME280;47425;51.976;5.326;2023-10-09T02:03:16;101808.53;;;19.21;61.86
61554;BME280;47425;51.976;5.326;2023-10-09T02:05:43;101813.84;;;19.21;61.51
61554;BME280;47425;51.976;5.326;2023-10-09T02:08:11;101812.03;;;19.21;61.70
61554;BME280;47425;51.976;5.326;2023-10-09T02:10:39;101814.59;;;19.24;61.82
61554;BME280;47425;51.976;5.326;2023-10-09T02:13:12;101816.97;;;19.31;61.63
61554;BME280;47425;51.976;5.326;2023-10-09T02:15:42;101825.59;;;19.36;61.31
61554;BME280;47425;51.976;5.326;2023-10-09T02:18:19;101814.78;;;19.40;60.99
61554;BME280;47425;51.976;5.326;2023-10-09T02:20:53;101803.72;;;19.51;61.17
61554;BME280;47425;51.976;5.326;2023-10-09T02:23:39;101802.84;;;19.51;61.06
61554;BME280;47425;51.976;5.326;2023-10-09T02:26:08;101808.75;;;19.57;60.64
61554;BME280;47425;51.976;5.326;2023-10-09T02:28:36;101800.84;;;19.56;60.94
61554;BME280;47425;51.976;5.326;2023-10-09T02:31:09;101803.97;;;19.66;60.66
61554;BME280;47425;51.976;5.326;2023-10-09T02:33:37;101792.72;;;19.81;60.20
61554;BME280;47425;51.976;5.326;2023-10-09T02:36:04;101788.78;;;19.90;60.02
61554;BME280;47425;51.976;5.326;2023-10-09T02:38:31;101786.13;;;19.90;59.46
61554;BME280;47425;51.976;5.326;2023-10-09T02:41:01;101784.94;;;19.97;59.39
61554;BME280;47425;51.976;5.326;2023-10-09T02:43:46;101775.06;;;19.99;59.39
61554;BME280;47425;51.976;5.326;2023-10-09T02:46:16;101772.81;;;20.10;58.87
61554;BME280;47425;51.976;5.326;2023-10-09T02:48:44;101780.47;;;20.17;58.59
61554;BME280;47425;51.976;5.326;2023-10-09T02:51:16;101779.03;;;20.09;58.91
61554;BME280;47425;51.976;5.326;2023-10-09T02:53:56;101774.00;;;20.03;59.61
61554;BME280;47425;51.976;5.326;2023-10-09T02:56:24;101771.41;;;20.02;59.42
61554;BME280;47425;51.976;5.326;2023-10-09T02:59:23;101765.09;;;20.04;59.50
61554;BME280;47425;51.976;5.326;2023-10-09T03:01:51;101774.72;;;20.07;59.40
61554;BME280;47425;51.976;5.326;2023-10-09T03:04:18;101776.00;;;19.98;59.40
61554;BME280;47425;51.976;5.326;2023-10-09T03:06:48;101759.41;;;19.93;59.65
61554;BME280;47425;51.976;5.326;2023-10-09T03:09:16;101759.34;;;19.94;59.83
61554;BME280;47425;51.976;5.326;2023-10-09T03:11:44;101764.59;;;19.96;59.42
61554;BME280;47425;51.976;5.326;2023-10-09T03:14:11;101766.59;;;19.91;59.58
61554;BME280;47425;51.976;5.326;2023-10-09T03:16:39;101770.16;;;19.90;59.72
61554;BME280;47425;51.976;5.326;2023-10-09T03:19:06;101766.31;;;19.97;59.49
61554;BME280;47425;51.976;5.326;2023-10-09T03:21:33;101756.38;;;20.01;59.35
61554;BME280;47425;51.976;5.326;2023-10-09T03:24:01;101751.66;;;20.07;59.76
61554;BME280;47425;51.976;5.326;2023-10-09T03:26:30;101748.00;;;20.10;59.21
61554;BME280;47425;51.976;5.326;2023-10-09T03:28:56;101735.28;;;20.17;59.45
61554;BME280;47425;51.976;5.326;2023-10-09T03:31:26;101738.50;;;20.23;58.99
61554;BME280;47425;51.976;5.326;2023-10-09T03:33:54;101736.16;;;20.17;59.20
61554;BME280;47425;51.976;5.326;2023-10-09T03:36:20;101731.03;;;20.12;59.50
61554;BME280;47425;51.976;5.326;2023-10-09T03:38:53;101738.31;;;20.09;59.71
61554;BME280;47425;51.976;5.326;2023-10-09T03:41:24;101743.56;;;20.10;59.77
61554;BME280;47425;51.976;5.326;2023-10-09T03:43:52;101741.09;;;20.06;59.45
61554;BME280;47425;51.976;5.326;2023-10-09T03:46:19;101735.00;;;20.04;59.33
61554;BME280;47425;51.976;5.326;2023-10-09T03:48:49;101730.25;;;20.10;59.37
61554;BME280;47425;51.976;5.326;2023-10-09T03:51:17;101744.41;;;20.11;59.51
61554;BME280;47425;51.976;5.326;2023-10-09T03:53:47;101750.06;;;20.03;60.12
61554;BME280;47425;51.976;5.326;2023-10-09T03:56:14;101754.28;;;19.88;60.19
61554;BME280;47425;51.976;5.326;2023-10-09T03:58:41;101770.75;;;19.76;60.40
61554;BME280;47425;51.976;5.326;2023-10-09T04:01:10;101797.94;;;19.62;61.24
61554;BME280;47425;51.976;5.326;2023-10-09T04:03:44;101794.47;;;19.60;61.66
61554;BME280;47425;51.976;5.326;2023-10-09T04:06:10;101789.16;;;19.60;61.65
61554;BME280;47425;51.976;5.326;2023-10-09T04:08:39;101793.09;;;19.51;62.19
61554;BME280;47425;51.976;5.326;2023-10-09T04:11:12;101786.75;;;19.33;63.13
61554;BME280;47425;51.976;5.326;2023-10-09T04:13:42;101778.13;;;19.28;63.35
61554;BME280;47425;51.976;5.326;2023-10-09T04:16:12;101772.09;;;19.24;63.49
61554;BME280;47425;51.976;5.326;2023-10-09T04:18:54;101781.75;;;19.25;63.72
61554;BME280;47425;51.976;5.326;2023-10-09T04:21:21;101771.06;;;19.27;63.57
61554;BME280;47425;51.976;5.326;2023-10-09T04:24:00;101778.94;;;19.30;63.72
61554;BME280;47425;51.976;5.326;2023-10-09T04:26:48;101775.97;;;19.38;63.50
61554;BME280;47425;51.976;5.326;2023-10-09T04:29:21;101793.66;;;19.37;63.47
61554;BME280;47425;51.976;5.326;2023-10-09T04:31:53;101787.59;;;19.34;63.04
61554;BME280;47425;51.976;5.326;2023-10-09T04:34:21;101788.50;;;19.34;63.35
61554;BME280;47425;51.976;5.326;2023-10-09T04:36:48;101787.44;;;19.38;62.99
61554;BME280;47425;51.976;5.326;2023-10-09T04:39:18;101779.16;;;19.46;62.77
61554;BME280;47425;51.976;5.326;2023-10-09T04:42:02;101766.56;;;19.50;62.93
61554;BME280;47425;51.976;5.326;2023-10-09T04:44:49;101764.97;;;19.45;63.27
61554;BME280;47425;51.976;5.326;2023-10-09T04:47:34;101758.00;;;19.43;63.32
61554;BME280;47425;51.976;5.326;2023-10-09T04:50:05;101758.88;;;19.43;63.22
61554;BME280;47425;51.976;5.326;2023-10-09T04:52:35;101758.66;;;19.48;63.16
61554;BME280;47425;51.976;5.326;2023-10-09T04:55:20;101749.03;;;19.45;63.07
61554;BME280;47425;51.976;5.326;2023-10-09T04:57:51;101756.34;;;19.40;63.45
61554;BME280;47425;51.976;5.326;2023-10-09T05:00:36;101753.81;;;19.37;63.22
61554;BME280;47425;51.976;5.326;2023-10-09T05:03:28;101764.38;;;19.39;63.69
61554;BME280;47425;51.976;5.326;2023-10-09T05:06:09;101777.00;;;19.34;63.81
61554;BME280;47425;51.976;5.326;2023-10-09T05:08:48;101769.09;;;19.32;64.02
61554;BME280;47425;51.976;5.326;2023-10-09T05:11:16;101782.06;;;19.40;63.73
61554;BME280;47425;51.976;5.326;2023-10-09T05:14:01;101780.06;;;19.45;63.63
61554;BME280;47425;51.976;5.326;2023-10-09T05:16:40;101779.31;;;19.41;63.74
61554;BME280;47425;51.976;5.326;2023-10-09T05:19:21;101760.81;;;19.40;63.40
61554;BME280;47425;51.976;5.326;2023-10-09T05:22:08;101775.88;;;19.39;64.00
61554;BME280;47425;51.976;5.326;2023-10-09T05:24:43;101783.13;;;19.36;63.85
61554;BME280;47425;51.976;5.326;2023-10-09T05:27:11;101784.56;;;19.43;64.06
61554;BME280;47425;51.976;5.326;2023-10-09T05:29:51;101790.84;;;19.42;63.66
61554;BME280;47425;51.976;5.326;2023-10-09T05:32:39;101788.34;;;19.37;64.26
61554;BME280;47425;51.976;5.326;2023-10-09T05:35:15;101779.25;;;19.43;64.04
61554;BME280;47425;51.976;5.326;2023-10-09T05:37:51;101797.06;;;19.41;64.17
61554;BME280;47425;51.976;5.326;2023-10-09T05:40:28;101800.72;;;19.38;64.14
61554;BME280;47425;51.976;5.326;2023-10-09T05:42:57;101798.81;;;19.42;64.20
61554;BME280;47425;51.976;5.326;2023-10-09T05:45:27;101807.38;;;19.49;63.75
61554;BME280;47425;51.976;5.326;2023-10-09T05:48:23;101811.41;;;19.37;64.30
61554;BME280;47425;51.976;5.326;2023-10-09T05:51:09;101816.66;;;19.38;64.27
61554;BME280;47425;51.976;5.326;2023-10-09T05:53:37;101830.84;;;19.37;64.45
61554;BME280;47425;51.976;5.326;2023-10-09T05:56:19;101834.41;;;19.38;64.36
61554;BME280;47425;51.976;5.326;2023-10-09T05:59:05;101827.22;;;19.40;64.22
61554;BME280;47425;51.976;5.326;2023-10-09T06:01:53;101832.72;;;19.35;64.58
61554;BME280;47425;51.976;5.326;2023-10-09T06:04:38;101822.81;;;19.39;64.37
61554;BME280;47425;51.976;5.326;2023-10-09T06:07:20;101822.72;;;19.42;63.84
61554;BME280;47425;51.976;5.326;2023-10-09T06:10:07;101800.47;;;19.44;63.98
61554;BME280;47425;51.976;5.326;2023-10-09T06:12:44;101781.53;;;19.52;63.98
61554;BME280;47425;51.976;5.326;2023-10-09T06:15:24;101776.09;;;19.55;63.52
61554;BME280;47425;51.976;5.326;2023-10-09T06:18:18;101773.38;;;19.57;63.64
61554;BME280;47425;51.976;5.326;2023-10-09T06:20:59;101770.81;;;19.54;64.08
61554;BME280;47425;51.976;5.326;2023-10-09T06:23:35;101762.91;;;19.52;64.09
61554;BME280;47425;51.976;5.326;2023-10-09T06:26:35;101782.94;;;19.61;63.49
61554;BME280;47425;51.976;5.326;2023-10-09T06:29:02;101794.72;;;19.54;63.71
61554;BME280;47425;51.976;5.326;2023-10-09T06:31:46;101774.16;;;19.59;63.50
61554;BME280;47425;51.976;5.326;2023-10-09T06:34:44;101771.69;;;19.75;63.36
61554;BME280;47425;51.976;5.326;2023-10-09T06:37:10;101782.78;;;19.85;63.03
61554;BME280;47425;51.976;5.326;2023-10-09T06:39:59;101794.16;;;19.88;62.51
61554;BME280;47425;51.976;5.326;2023-10-09T06:42:52;101782.47;;;19.92;62.43
61554;BME280;47425;51.976;5.326;2023-10-09T06:45:23;101776.94;;;19.97;62.38
61554;BME280;47425;51.976;5.326;2023-10-09T06:48:11;101773.06;;;20.04;62.20
61554;BME280;47425;51.976;5.326;2023-10-09T06:50:53;101794.19;;;20.07;62.10
61554;BME280;47425;51.976;5.326;2023-10-09T06:53:30;101810.84;;;19.92;62.43
61554;BME280;47425;51.976;5.326;2023-10-09T06:56:12;101809.25;;;19.88;62.56
61554;BME280;47425;51.976;5.326;2023-10-09T06:58:52;101812.53;;;19.72;63.21
61554;BME280;47425;51.976;5.326;2023-10-09T07:01:20;101826.75;;;19.71;63.86
61554;BME280;47425;51.976;5.326;2023-10-09T07:03:55;101830.72;;;19.83;63.12
61554;BME280;47425;51.976;5.326;2023-10-09T07:06:35;101836.91;;;19.84;63.08
61554;BME280;47425;51.976;5.326;2023-10-09T07:09:17;101829.59;;;19.89;62.93
61554;BME280;47425;51.976;5.326;2023-10-09T07:11:45;101842.22;;;19.84;63.28
61554;BME280;47425;51.976;5.326;2023-10-09T07:14:36;101836.91;;;19.84;63.45
61554;BME280;47425;51.976;5.326;2023-10-09T07:17:24;101832.44;;;19.84;63.70
61554;BME280;47425;51.976;5.326;2023-10-09T07:20:12;101833.97;;;19.90;63.10
61554;BME280;47425;51.976;5.326;2023-10-09T07:22:42;101844.59;;;19.90;63.27
61554;BME280;47425;51.976;5.326;2023-10-09T07:25:39;101833.97;;;19.90;63.55
61554;BME280;47425;51.976;5.326;2023-10-09T07:28:21;101840.41;;;19.84;63.84
61554;BME280;47425;51.976;5.326;2023-10-09T07:31:16;101816.03;;;19.95;63.09
61554;BME280;47425;51.976;5.326;2023-10-09T07:33:51;101791.53;;;20.07;62.85
61554;BME280;47425;51.976;5.326;2023-10-09T07:36:25;101781.63;;;20.11;62.80
61554;BME280;47425;51.976;5.326;2023-10-09T07:39:05;101794.44;;;20.22;62.33
61554;BME280;47425;51.976;5.326;2023-10-09T07:41:41;101772.59;;;20.34;62.19
61554;BME280;47425;51.976;5.326;2023-10-09T07:44:22;101757.00;;;20.45;60.95
61554;BME280;47425;51.976;5.326;2023-10-09T07:47:03;101742.00;;;20.62;60.96
61554;BME280;47425;51.976;5.326;2023-10-09T07:49:49;101732.50;;;20.75;60.03
61554;BME280;47425;51.976;5.326;2023-10-09T07:52:21;101733.88;;;20.84;60.16
61554;BME280;47425;51.976;5.326;2023-10-09T07:54:52;101755.00;;;20.87;59.99
61554;BME280;47425;51.976;5.326;2023-10-09T07:57:30;101745.94;;;20.91;60.08
61554;BME280;47425;51.976;5.326;2023-10-09T08:00:06;101772.31;;;20.96;60.30
61554;BME280;47425;51.976;5.326;2023-10-09T08:03:00;101786.97;;;20.87;61.10
61554;BME280;47425;51.976;5.326;2023-10-09T08:05:27;101813.31;;;20.74;61.34
61554;BME280;47425;51.976;5.326;2023-10-09T08:08:00;101816.53;;;20.62;62.01
61554;BME280;47425;51.976;5.326;2023-10-09T08:10:49;101806.59;;;20.66;61.63
61554;BME280;47425;51.976;5.326;2023-10-09T08:13:33;101814.72;;;20.62;62.14
61554;BME280;47425;51.976;5.326;2023-10-09T08:16:25;101825.22;;;20.66;61.89
61554;BME280;47425;51.976;5.326;2023-10-09T08:19:01;101830.47;;;20.67;61.98
61554;BME280;47425;51.976;5.326;2023-10-09T08:21:45;101824.03;;;20.73;61.59
61554;BME280;47425;51.976;5.326;2023-10-09T08:24:35;101830.78;;;20.80;61.96
61554;BME280;47425;51.976;5.326;2023-10-09T08:27:08;101827.06;;;20.84;61.69
61554;BME280;47425;51.976;5.326;2023-10-09T08:32:54;101851.91;;;21.02;61.24
61554;BME280;47425;51.976;5.326;2023-10-09T08:35:38;101855.66;;;20.98;61.29
61554;BME280;47425;51.976;5.326;2023-10-09T08:38:14;101864.91;;;20.91;61.63
61554;BME280;47425;51.976;5.326;2023-10-09T08:40:43;101867.84;;;20.85;62.00
61554;BME280;47425;51.976;5.326;2023-10-09T08:43:13;101865.03;;;20.88;61.80
61554;BME280;47425;51.976;5.326;2023-10-09T08:45:44;101858.63;;;20.92;61.43
61554;BME280;47425;51.976;5.326;2023-10-09T08:48:12;101869.72;;;21.02;61.01
61554;BME280;47425;51.976;5.326;2023-10-09T08:50:41;101864.16;;;21.06;61.49
61554;BME280;47425;51.976;5.326;2023-10-09T08:53:09;101865.06;;;21.05;60.53
61554;BME280;47425;51.976;5.326;2023-10-09T08:55:37;101862.22;;;21.10;60.88
61554;BME280;47425;51.976;5.326;2023-10-09T08:58:05;101866.59;;;21.11;61.45
61554;BME280;47425;51.976;5.326;2023-10-09T09:00:35;101875.72;;;21.05;61.47
61554;BME280;47425;51.976;5.326;2023-10-09T09:03:04;101888.13;;;21.06;61.78
61554;BME280;47425;51.976;5.326;2023-10-09T09:05:32;101887.03;;;21.10;61.42
61554;BME280;47425;51.976;5.326;2023-10-09T09:08:01;101890.09;;;21.20;60.91
61554;BME280;47425;51.976;5.326;2023-10-09T09:10:28;101880.47;;;21.18;61.73
61554;BME280;47425;51.976;5.326;2023-10-09T09:13:00;101887.75;;;21.14;61.75
61554;BME280;47425;51.976;5.326;2023-10-09T09:15:31;101887.84;;;21.12;61.75
61554;BME280;47425;51.976;5.326;2023-10-09T09:18:03;101889.19;;;21.21;61.67
61554;BME280;47425;51.976;5.326;2023-10-09T09:20:34;101889.66;;;21.29;61.30
61554;BME280;47425;51.976;5.326;2023-10-09T09:23:10;101886.41;;;21.42;60.89
61554;BME280;47425;51.976;5.326;2023-10-09T09:25:41;101888.84;;;21.46;60.83
61554;BME280;47425;51.976;5.326;2023-10-09T09:28:14;101891.78;;;21.40;61.02
61554;BME280;47425;51.976;5.326;2023-10-09T09:30:48;101898.53;;;21.30;61.25
61554;BME280;47425;51.976;5.326;2023-10-09T09:33:17;101905.25;;;21.20;61.39
61554;BME280;47425;51.976;5.326;2023-10-09T09:35:58;101901.28;;;21.28;61.40
61554;BME280;47425;51.976;5.326;2023-10-09T09:38:27;101912.78;;;21.29;61.41
61554;BME280;47425;51.976;5.326;2023-10-09T09:40:56;101904.72;;;21.31;61.41
61554;BME280;47425;51.976;5.326;2023-10-09T09:43:22;101913.34;;;21.36;61.36
61554;BME280;47425;51.976;5.326;2023-10-09T09:45:52;101903.34;;;21.41;60.72
61554;BME280;47425;51.976;5.326;2023-10-09T09:48:21;101899.56;;;21.45;60.26
61554;BME280;47425;51.976;5.326;2023-10-09T09:50:49;101905.69;;;21.47;60.53
61554;BME280;47425;51.976;5.326;2023-10-09T09:53:20;101899.06;;;21.56;60.24
61554;BME280;47425;51.976;5.326;2023-10-09T09:55:51;101904.03;;;21.64;59.88
61554;BME280;47425;51.976;5.326;2023-10-09T09:58:21;101899.72;;;21.78;59.50
61554;BME280;47425;51.976;5.326;2023-10-09T10:00:48;101898.44;;;21.68;59.53
61554;BME280;47425;51.976;5.326;2023-10-09T10:03:22;101906.44;;;21.68;59.49
61554;BME280;47425;51.976;5.326;2023-10-09T10:05:51;101904.25;;;21.76;59.39
61554;BME280;47425;51.976;5.326;2023-10-09T10:08:19;101897.34;;;21.72;59.87
61554;BME280;47425;51.976;5.326;2023-10-09T10:10:46;101901.59;;;21.76;59.89
61554;BME280;47425;51.976;5.326;2023-10-09T10:16:06;101900.25;;;21.85;59.77
61554;BME280;47425;51.976;5.326;2023-10-09T10:21:27;101902.22;;;21.99;59.53
61554;BME280;47425;51.976;5.326;2023-10-09T10:26:52;101899.88;;;21.93;59.59
61554;BME280;47425;51.976;5.326;2023-10-09T10:29:44;101900.56;;;21.96;59.59
61554;BME280;47425;51.976;5.326;2023-10-09T10:32:11;101900.44;;;22.00;59.12
61554;BME280;47425;51.976;5.326;2023-10-09T10:34:52;101900.09;;;22.06;59.28
61554;BME280;47425;51.976;5.326;2023-10-09T10:37:34;101908.16;;;22.04;59.06
61554;BME280;47425;51.976;5.326;2023-10-09T10:40:04;101909.81;;;22.07;59.02
61554;BME280;47425;51.976;5.326;2023-10-09T10:42:46;101915.16;;;22.07;59.24
61554;BME280;47425;51.976;5.326;2023-10-09T10:45:24;101909.34;;;22.16;58.70
61554;BME280;47425;51.976;5.326;2023-10-09T10:48:02;101907.66;;;22.31;58.75
61554;BME280;47425;51.976;5.326;2023-10-09T10:50:34;101913.75;;;22.33;58.40
61554;BME280;47425;51.976;5.326;2023-10-09T10:53:11;101909.88;;;22.40;58.05
61554;BME280;47425;51.976;5.326;2023-10-09T10:55:54;101909.88;;;22.40;57.63
61554;BME280;47425;51.976;5.326;2023-10-09T10:58:21;101910.59;;;22.44;57.90
61554;BME280;47425;51.976;5.326;2023-10-09T11:01:04;101916.78;;;22.44;58.14
61554;BME280;47425;51.976;5.326;2023-10-09T11:03:42;101913.25;;;22.44;57.91
61554;BME280;47425;51.976;5.326;2023-10-09T11:06:26;101912.47;;;22.42;57.41
61554;BME280;47425;51.976;5.326;2023-10-09T11:09:04;101919.97;;;22.51;57.61
61554;BME280;47425;51.976;5.326;2023-10-09T11:11:48;101917.22;;;22.53;57.45
61554;BME280;47425;51.976;5.326;2023-10-09T11:14:15;101915.34;;;22.55;56.84
61554;BME280;47425;51.976;5.326;2023-10-09T11:16:43;101916.09;;;22.57;57.05
61554;BME280;47425;51.976;5.326;2023-10-09T11:19:14;101916.91;;;22.59;57.09
61554;BME280;47425;51.976;5.326;2023-10-09T11:21:58;101912.69;;;22.55;57.16
61554;BME280;47425;51.976;5.326;2023-10-09T11:24:47;101907.16;;;22.58;56.76
61554;BME280;47425;51.976;5.326;2023-10-09T11:27:26;101921.63;;;22.54;56.86
61554;BME280;47425;51.976;5.326;2023-10-09T11:29:58;101916.47;;;22.51;57.08
61554;BME280;47425;51.976;5.326;2023-10-09T11:32:42;101915.94;;;22.60;57.23
61554;BME280;47425;51.976;5.326;2023-10-09T11:35:09;101905.47;;;22.73;56.87
61554;BME280;47425;51.976;5.326;2023-10-09T11:37:36;101915.63;;;22.82;55.89
61554;BME280;47425;51.976;5.326;2023-10-09T11:40:06;101919.06;;;22.84;56.44
61554;BME280;47425;51.976;5.326;2023-10-09T11:42:48;101911.75;;;22.88;56.58
61554;BME280;47425;51.976;5.326;2023-10-09T11:45:22;101907.28;;;22.88;55.90
61554;BME280;47425;51.976;5.326;2023-10-09T11:47:51;101918.50;;;22.95;55.75
61554;BME280;47425;51.976;5.326;2023-10-09T11:50:38;101913.31;;;22.92;56.34
61554;BME280;47425;51.976;5.326;2023-10-09T11:53:09;101913.41;;;22.90;56.21
61554;BME280;47425;51.976;5.326;2023-10-09T11:55:46;101907.63;;;22.98;55.77
61554;BME280;47425;51.976;5.326;2023-10-09T11:58:15;101898.75;;;22.98;55.99
61554;BME280;47425;51.976;5.326;2023-10-09T12:00:49;101901.88;;;23.06;55.21
61554;BME280;47425;51.976;5.326;2023-10-09T12:03:17;101909.19;;;23.02;55.69
61554;BME280;47425;51.976;5.326;2023-10-09T12:05:48;101900.03;;;22.90;56.27
61554;BME280;47425;51.976;5.326;2023-10-09T12:08:15;101903.00;;;23.02;55.89
61554;BME280;47425;51.976;5.326;2023-10-09T12:10:42;101895.56;;;23.07;55.42
61554;BME280;47425;51.976;5.326;2023-10-09T12:13:11;101898.84;;;23.12;55.55
61554;BME280;47425;51.976;5.326;2023-10-09T12:15:42;101900.81;;;23.24;55.10
61554;BME280;47425;51.976;5.326;2023-10-09T12:18:11;101902.03;;;23.19;54.53
61554;BME280;47425;51.976;5.326;2023-10-09T12:20:41;101895.94;;;23.17;55.13
61554;BME280;47425;51.976;5.326;2023-10-09T12:23:07;101888.78;;;23.17;54.88
61554;BME280;47425;51.976;5.326;2023-10-09T12:25:58;101893.19;;;23.18;55.20
61554;BME280;47425;51.976;5.326;2023-10-09T12:28:28;101884.13;;;23.21;54.97
61554;BME280;47425;51.976;5.326;2023-10-09T12:30:55;101879.72;;;23.20;54.33
61554;BME280;47425;51.976;5.326;2023-10-09T12:33:27;101884.88;;;23.23;54.47
61554;BME280;47425;51.976;5.326;2023-10-09T12:35:55;101882.13;;;23.24;54.33
61554;BME280;47425;51.976;5.326;2023-10-09T12:38:25;101882.13;;;23.24;54.49
61554;BME280;47425;51.976;5.326;2023-10-09T12:41:01;101878.94;;;23.18;54.54
61554;BME280;47425;51.976;5.326;2023-10-09T12:43:36;101882.09;;;23.08;54.67
61554;BME280;47425;51.976;5.326;2023-10-09T12:46:06;101879.28;;;23.11;54.42
61554;BME280;47425;51.976;5.326;2023-10-09T12:48:33;101869.63;;;23.09;54.79
61554;BME280;47425;51.976;5.326;2023-10-09T12:51:00;101879.44;;;23.08;54.67
61554;BME280;47425;51.976;5.326;2023-10-09T12:53:32;101885.75;;;23.07;54.64
61554;BME280;47425;51.976;5.326;2023-10-09T12:55:59;101881.94;;;23.11;55.05
61554;BME280;47425;51.976;5.326;2023-10-09T12:58:25;101877.53;;;23.10;55.13
61554;BME280;47425;51.976;5.326;2023-10-09T13:00:53;101879.91;;;23.17;54.87
61554;BME280;47425;51.976;5.326;2023-10-09T13:03:20;101888.78;;;23.17;54.23
61554;BME280;47425;51.976;5.326;2023-10-09T13:05:48;101893.94;;;23.20;54.74
61554;BME280;47425;51.976;5.326;2023-10-09T13:08:21;101894.22;;;23.16;54.56
61554;BME280;47425;51.976;5.326;2023-10-09T13:10:49;101896.34;;;23.09;54.37
61554;BME280;47425;51.976;5.326;2023-10-09T13:13:24;101903.97;;;23.17;54.50
61554;BME280;47425;51.976;5.326;2023-10-09T13:16:03;101902.84;;;23.21;54.91
61554;BME280;47425;51.976;5.326;2023-10-09T13:18:31;101902.84;;;23.21;55.11
61554;BME280;47425;51.976;5.326;2023-10-09T13:20:59;101902.94;;;23.19;55.12
61554;BME280;47425;51.976;5.326;2023-10-09T13:23:28;101897.22;;;23.25;55.22
61554;BME280;47425;51.976;5.326;2023-10-09T13:26:03;101896.09;;;23.13;56.16
61554;BME280;47425;51.976;5.326;2023-10-09T13:28:42;101892.56;;;23.13;55.22
61554;BME280;47425;51.976;5.326;2023-10-09T13:31:11;101900.81;;;23.08;55.22
61554;BME280;47425;51.976;5.326;2023-10-09T13:33:39;101897.91;;;23.13;54.89
61554;BME280;47425;51.976;5.326;2023-10-09T13:36:06;101903.31;;;23.11;54.87
61554;BME280;47425;51.976;5.326;2023-10-09T13:38:41;101905.13;;;23.11;55.29